<?xml version="1.0" encoding="UTF-8" standalone="no" ?>
<gpx xmlns="http://www.topografix.com/GPX/1/1" xmlns:xsi="http://www.w3.org/2001/XMLSchema-instance" xsi:schemaLocation="http://www.topografix.com/GPX/1/1 http://www.topografix.com/GPX/1/1/gpx.xsd" version="1.1" creator="VisuGPX - https://www.visugpx.com">
  <metadata>
    <name>Vacances 2021</name>
  </metadata>
  <trk>
    <name><![CDATA[Journal actif: 2021-07-31 09:47]]></name>
    <trkseg>
      <trkpt lat="48.61871" lon="-1.46039">
        <ele>5.42</ele>
        <time>2021-07-31T11:47:06Z</time>
      </trkpt>
      <trkpt lat="48.61791" lon="-1.46164">
        <ele>4.94</ele>
        <time>2021-07-31T11:47:24Z</time>
      </trkpt>
      <trkpt lat="48.61701" lon="-1.46293">
        <ele>3.02</ele>
        <time>2021-07-31T11:47:37Z</time>
      </trkpt>
      <trkpt lat="48.61648" lon="-1.4635">
        <ele>1.58</ele>
        <time>2021-07-31T11:47:43Z</time>
      </trkpt>
      <trkpt lat="48.61641" lon="-1.46362">
        <ele>2.54</ele>
        <time>2021-07-31T11:47:44Z</time>
      </trkpt>
      <trkpt lat="48.61627" lon="-1.4639">
        <ele>3.02</ele>
        <time>2021-07-31T11:47:45Z</time>
      </trkpt>
      <trkpt lat="48.61627" lon="-1.4639">
        <ele>3.02</ele>
        <time>2021-07-31T11:47:46Z</time>
      </trkpt>
      <trkpt lat="48.61622" lon="-1.46406">
        <ele>2.54</ele>
        <time>2021-07-31T11:47:47Z</time>
      </trkpt>
      <trkpt lat="48.61619" lon="-1.46423">
        <ele>2.06</ele>
        <time>2021-07-31T11:47:48Z</time>
      </trkpt>
      <trkpt lat="48.61613" lon="-1.46456">
        <ele>2.06</ele>
        <time>2021-07-31T11:47:49Z</time>
      </trkpt>
      <trkpt lat="48.61563" lon="-1.46691">
        <ele>3.5</ele>
        <time>2021-07-31T11:48:04Z</time>
      </trkpt>
      <trkpt lat="48.61525" lon="-1.4685">
        <ele>3.98</ele>
        <time>2021-07-31T11:48:13Z</time>
      </trkpt>
      <trkpt lat="48.61523" lon="-1.46868">
        <ele>3.02</ele>
        <time>2021-07-31T11:48:14Z</time>
      </trkpt>
      <trkpt lat="48.61521" lon="-1.46884">
        <ele>3.5</ele>
        <time>2021-07-31T11:48:15Z</time>
      </trkpt>
      <trkpt lat="48.61522" lon="-1.46902">
        <ele>3.5</ele>
        <time>2021-07-31T11:48:16Z</time>
      </trkpt>
      <trkpt lat="48.61524" lon="-1.46922">
        <ele>3.5</ele>
        <time>2021-07-31T11:48:17Z</time>
      </trkpt>
      <trkpt lat="48.61538" lon="-1.47159">
        <ele>3.98</ele>
        <time>2021-07-31T11:48:28Z</time>
      </trkpt>
      <trkpt lat="48.61562" lon="-1.47421">
        <ele>4.46</ele>
        <time>2021-07-31T11:48:41Z</time>
      </trkpt>
      <trkpt lat="48.61565" lon="-1.4747">
        <ele>4.94</ele>
        <time>2021-07-31T11:48:44Z</time>
      </trkpt>
      <trkpt lat="48.61566" lon="-1.47489">
        <ele>4.46</ele>
        <time>2021-07-31T11:48:45Z</time>
      </trkpt>
      <trkpt lat="48.61571" lon="-1.47525">
        <ele>4.46</ele>
        <time>2021-07-31T11:48:46Z</time>
      </trkpt>
      <trkpt lat="48.61575" lon="-1.47543">
        <ele>3.98</ele>
        <time>2021-07-31T11:48:47Z</time>
      </trkpt>
      <trkpt lat="48.61575" lon="-1.47543">
        <ele>3.98</ele>
        <time>2021-07-31T11:48:48Z</time>
      </trkpt>
      <trkpt lat="48.61578" lon="-1.4756">
        <ele>3.5</ele>
        <time>2021-07-31T11:48:49Z</time>
      </trkpt>
      <trkpt lat="48.61582" lon="-1.47578">
        <ele>3.5</ele>
        <time>2021-07-31T11:48:50Z</time>
      </trkpt>
      <trkpt lat="48.61597" lon="-1.47838">
        <ele>3.5</ele>
        <time>2021-07-31T11:49:04Z</time>
      </trkpt>
      <trkpt lat="48.61601" lon="-1.48317">
        <ele>2.06</ele>
        <time>2021-07-31T11:49:28Z</time>
      </trkpt>
      <trkpt lat="48.61607" lon="-1.48748">
        <ele>2.54</ele>
        <time>2021-07-31T11:49:50Z</time>
      </trkpt>
      <trkpt lat="48.61599" lon="-1.48948">
        <ele>3.5</ele>
        <time>2021-07-31T11:50:02Z</time>
      </trkpt>
      <trkpt lat="48.61551" lon="-1.49266">
        <ele>4.46</ele>
        <time>2021-07-31T11:50:22Z</time>
      </trkpt>
      <trkpt lat="48.61485" lon="-1.4964">
        <ele>3.02</ele>
        <time>2021-07-31T11:50:43Z</time>
      </trkpt>
      <trkpt lat="48.61457" lon="-1.49792">
        <ele>2.06</ele>
        <time>2021-07-31T11:50:53Z</time>
      </trkpt>
      <trkpt lat="48.61447" lon="-1.4984">
        <ele>2.06</ele>
        <time>2021-07-31T11:50:58Z</time>
      </trkpt>
      <trkpt lat="48.61445" lon="-1.49846">
        <ele>2.54</ele>
        <time>2021-07-31T11:50:59Z</time>
      </trkpt>
      <trkpt lat="48.61444" lon="-1.49852">
        <ele>2.54</ele>
        <time>2021-07-31T11:51:00Z</time>
      </trkpt>
      <trkpt lat="48.61443" lon="-1.49856">
        <ele>2.54</ele>
        <time>2021-07-31T11:51:01Z</time>
      </trkpt>
      <trkpt lat="48.61443" lon="-1.4986">
        <ele>2.54</ele>
        <time>2021-07-31T11:51:02Z</time>
      </trkpt>
      <trkpt lat="48.61442" lon="-1.49863">
        <ele>2.54</ele>
        <time>2021-07-31T11:51:03Z</time>
      </trkpt>
      <trkpt lat="48.61412" lon="-1.49877">
        <ele>3.02</ele>
        <time>2021-07-31T11:51:15Z</time>
      </trkpt>
      <trkpt lat="48.6141" lon="-1.49876">
        <ele>3.02</ele>
        <time>2021-07-31T11:51:35Z</time>
      </trkpt>
      <trkpt lat="48.6141" lon="-1.49874">
        <ele>2.54</ele>
        <time>2021-07-31T11:59:46Z</time>
      </trkpt>
      <trkpt lat="48.61409" lon="-1.49872">
        <ele>3.02</ele>
        <time>2021-07-31T12:03:01Z</time>
      </trkpt>
      <trkpt lat="48.61409" lon="-1.49873">
        <ele>3.5</ele>
        <time>2021-07-31T12:05:52Z</time>
      </trkpt>
      <trkpt lat="48.61408" lon="-1.49872">
        <ele>3.5</ele>
        <time>2021-07-31T12:08:48Z</time>
      </trkpt>
      <trkpt lat="48.61407" lon="-1.49871">
        <ele>3.98</ele>
        <time>2021-07-31T12:10:51Z</time>
      </trkpt>
      <trkpt lat="48.61407" lon="-1.49872">
        <ele>4.46</ele>
        <time>2021-07-31T12:12:33Z</time>
      </trkpt>
      <trkpt lat="48.61407" lon="-1.49872">
        <ele>4.46</ele>
        <time>2021-07-31T12:14:57Z</time>
      </trkpt>
      <trkpt lat="48.61407" lon="-1.49872">
        <ele>4.46</ele>
        <time>2021-07-31T12:16:52Z</time>
      </trkpt>
      <trkpt lat="48.61407" lon="-1.49872">
        <ele>4.46</ele>
        <time>2021-07-31T12:19:13Z</time>
      </trkpt>
      <trkpt lat="48.61407" lon="-1.49872">
        <ele>4.94</ele>
        <time>2021-07-31T12:21:41Z</time>
      </trkpt>
      <trkpt lat="48.61408" lon="-1.49871">
        <ele>5.42</ele>
        <time>2021-07-31T12:24:04Z</time>
      </trkpt>
      <trkpt lat="48.61408" lon="-1.49871">
        <ele>5.91</ele>
        <time>2021-07-31T12:26:59Z</time>
      </trkpt>
    </trkseg>
  </trk>
</gpx>